sensor_id;sensor_type;location;lat;lon;timestamp;P1;durP1;ratioP1;P2;durP2;ratioP2
15082;SDS011;7640;53.116;6.878;2022-08-19T00:01:54;10.87;;;9.40;;
15082;SDS011;7640;53.116;6.878;2022-08-19T00:04:26;10.33;;;8.60;;
15082;SDS011;7640;53.116;6.878;2022-08-19T00:06:58;8.43;;;7.27;;
15082;SDS011;7640;53.116;6.878;2022-08-19T00:09:27;9.10;;;8.13;;
15082;SDS011;7640;53.116;6.878;2022-08-19T00:11:56;10.97;;;7.87;;
15082;SDS011;7640;53.116;6.878;2022-08-19T00:14:27;10.03;;;7.97;;
15082;SDS011;7640;53.116;6.878;2022-08-19T00:16:58;11.87;;;9.70;;
15082;SDS011;7640;53.116;6.878;2022-08-19T00:19:26;11.30;;;8.70;;
15082;SDS011;7640;53.116;6.878;2022-08-19T00:21:54;13.97;;;10.53;;
15082;SDS011;7640;53.116;6.878;2022-08-19T00:24:22;12.07;;;10.60;;
15082;SDS011;7640;53.116;6.878;2022-08-19T00:26:51;13.97;;;10.80;;
15082;SDS011;7640;53.116;6.878;2022-08-19T00:29:20;14.30;;;10.30;;
15082;SDS011;7640;53.116;6.878;2022-08-19T00:31:50;12.83;;;10.57;;
15082;SDS011;7640;53.116;6.878;2022-08-19T00:34:20;12.23;;;10.60;;
15082;SDS011;7640;53.116;6.878;2022-08-19T00:36:49;12.03;;;10.03;;
15082;SDS011;7640;53.116;6.878;2022-08-19T00:39:17;12.50;;;10.23;;
15082;SDS011;7640;53.116;6.878;2022-08-19T00:41:46;11.87;;;9.20;;
15082;SDS011;7640;53.116;6.878;2022-08-19T00:44:17;13.57;;;9.93;;
15082;SDS011;7640;53.116;6.878;2022-08-19T00:46:55;10.33;;;8.57;;
15082;SDS011;7640;53.116;6.878;2022-08-19T00:49:27;12.03;;;9.20;;
15082;SDS011;7640;53.116;6.878;2022-08-19T00:52:00;13.53;;;9.83;;
15082;SDS011;7640;53.116;6.878;2022-08-19T00:54:32;12.30;;;9.33;;
15082;SDS011;7640;53.116;6.878;2022-08-19T00:57:03;12.43;;;8.47;;
15082;SDS011;7640;53.116;6.878;2022-08-19T00:59:38;11.07;;;8.63;;
15082;SDS011;7640;53.116;6.878;2022-08-19T01:02:30;12.37;;;8.43;;
15082;SDS011;7640;53.116;6.878;2022-08-19T01:05:00;10.27;;;8.33;;
15082;SDS011;7640;53.116;6.878;2022-08-19T01:07:32;12.17;;;9.33;;
15082;SDS011;7640;53.116;6.878;2022-08-19T01:10:04;11.67;;;9.03;;
15082;SDS011;7640;53.116;6.878;2022-08-19T01:12:36;11.73;;;8.37;;
15082;SDS011;7640;53.116;6.878;2022-08-19T01:15:05;9.73;;;8.53;;
15082;SDS011;7640;53.116;6.878;2022-08-19T01:17:38;10.10;;;8.47;;
15082;SDS011;7640;53.116;6.878;2022-08-19T01:20:09;12.57;;;9.80;;
15082;SDS011;7640;53.116;6.878;2022-08-19T01:22:43;12.07;;;9.37;;
15082;SDS011;7640;53.116;6.878;2022-08-19T01:25:15;12.13;;;9.37;;
15082;SDS011;7640;53.116;6.878;2022-08-19T01:27:50;13.27;;;10.30;;
15082;SDS011;7640;53.116;6.878;2022-08-19T01:30:22;13.70;;;9.70;;
15082;SDS011;7640;53.116;6.878;2022-08-19T01:32:53;13.93;;;11.37;;
15082;SDS011;7640;53.116;6.878;2022-08-19T01:35:23;13.33;;;10.33;;
15082;SDS011;7640;53.116;6.878;2022-08-19T01:37:56;14.57;;;10.20;;
15082;SDS011;7640;53.116;6.878;2022-08-19T01:40:28;12.37;;;10.03;;
15082;SDS011;7640;53.116;6.878;2022-08-19T01:42:59;13.70;;;10.97;;
15082;SDS011;7640;53.116;6.878;2022-08-19T01:45:30;15.17;;;11.60;;
15082;SDS011;7640;53.116;6.878;2022-08-19T01:48:01;16.30;;;12.07;;
15082;SDS011;7640;53.116;6.878;2022-08-19T01:50:31;15.47;;;11.13;;
15082;SDS011;7640;53.116;6.878;2022-08-19T01:53:04;14.00;;;11.70;;
15082;SDS011;7640;53.116;6.878;2022-08-19T01:55:37;13.50;;;10.60;;
15082;SDS011;7640;53.116;6.878;2022-08-19T01:58:11;13.80;;;10.83;;
15082;SDS011;7640;53.116;6.878;2022-08-19T02:00:43;15.67;;;11.80;;
15082;SDS011;7640;53.116;6.878;2022-08-19T02:03:12;15.67;;;11.83;;
15082;SDS011;7640;53.116;6.878;2022-08-19T02:05:41;17.27;;;11.87;;
15082;SDS011;7640;53.116;6.878;2022-08-19T02:08:11;12.23;;;9.90;;
15082;SDS011;7640;53.116;6.878;2022-08-19T02:10:41;16.30;;;11.63;;
15082;SDS011;7640;53.116;6.878;2022-08-19T02:13:12;15.40;;;11.13;;
15082;SDS011;7640;53.116;6.878;2022-08-19T02:15:46;17.73;;;12.93;;
15082;SDS011;7640;53.116;6.878;2022-08-19T02:18:14;18.27;;;12.90;;
15082;SDS011;7640;53.116;6.878;2022-08-19T02:20:53;20.33;;;13.57;;
15082;SDS011;7640;53.116;6.878;2022-08-19T02:23:22;17.60;;;12.73;;
15082;SDS011;7640;53.116;6.878;2022-08-19T02:25:51;17.23;;;11.97;;
15082;SDS011;7640;53.116;6.878;2022-08-19T02:28:19;17.83;;;12.70;;
15082;SDS011;7640;53.116;6.878;2022-08-19T02:30:47;18.27;;;12.87;;
15082;SDS011;7640;53.116;6.878;2022-08-19T02:33:16;17.17;;;12.73;;
15082;SDS011;7640;53.116;6.878;2022-08-19T02:35:44;18.20;;;12.40;;
15082;SDS011;7640;53.116;6.878;2022-08-19T02:38:13;17.83;;;12.23;;
15082;SDS011;7640;53.116;6.878;2022-08-19T02:40:56;14.97;;;11.63;;
15082;SDS011;7640;53.116;6.878;2022-08-19T02:43:27;19.30;;;12.67;;
15082;SDS011;7640;53.116;6.878;2022-08-19T02:45:59;16.87;;;12.30;;
15082;SDS011;7640;53.116;6.878;2022-08-19T02:48:28;19.00;;;13.27;;
15082;SDS011;7640;53.116;6.878;2022-08-19T02:50:57;17.13;;;12.70;;
15082;SDS011;7640;53.116;6.878;2022-08-19T02:53:26;19.17;;;12.53;;
15082;SDS011;7640;53.116;6.878;2022-08-19T02:55:56;22.43;;;14.23;;
15082;SDS011;7640;53.116;6.878;2022-08-19T02:58:24;18.17;;;12.90;;
15082;SDS011;7640;53.116;6.878;2022-08-19T03:00:54;23.17;;;13.73;;
15082;SDS011;7640;53.116;6.878;2022-08-19T03:03:24;20.47;;;13.77;;
15082;SDS011;7640;53.116;6.878;2022-08-19T03:06:02;19.87;;;12.70;;
15082;SDS011;7640;53.116;6.878;2022-08-19T03:08:33;19.10;;;13.90;;
15082;SDS011;7640;53.116;6.878;2022-08-19T03:11:03;19.97;;;13.57;;
15082;SDS011;7640;53.116;6.878;2022-08-19T03:13:31;19.67;;;13.23;;
15082;SDS011;7640;53.116;6.878;2022-08-19T03:16:00;19.07;;;12.53;;
15082;SDS011;7640;53.116;6.878;2022-08-19T03:18:32;20.90;;;13.27;;
15082;SDS011;7640;53.116;6.878;2022-08-19T03:21:00;19.37;;;12.37;;
15082;SDS011;7640;53.116;6.878;2022-08-19T03:23:28;21.10;;;13.77;;
15082;SDS011;7640;53.116;6.878;2022-08-19T03:25:57;18.63;;;12.77;;
15082;SDS011;7640;53.116;6.878;2022-08-19T03:28:43;22.33;;;14.10;;
15082;SDS011;7640;53.116;6.878;2022-08-19T03:31:23;21.43;;;13.80;;
15082;SDS011;7640;53.116;6.878;2022-08-19T03:34:13;19.07;;;12.77;;
15082;SDS011;7640;53.116;6.878;2022-08-19T03:36:44;18.50;;;12.67;;
15082;SDS011;7640;53.116;6.878;2022-08-19T03:39:13;19.67;;;12.70;;
15082;SDS011;7640;53.116;6.878;2022-08-19T03:41:44;19.57;;;14.07;;
15082;SDS011;7640;53.116;6.878;2022-08-19T03:44:37;21.27;;;13.50;;
15082;SDS011;7640;53.116;6.878;2022-08-19T03:47:05;21.83;;;13.67;;
15082;SDS011;7640;53.116;6.878;2022-08-19T03:49:33;18.70;;;12.87;;
15082;SDS011;7640;53.116;6.878;2022-08-19T03:52:03;21.23;;;12.93;;
15082;SDS011;7640;53.116;6.878;2022-08-19T03:54:34;19.37;;;13.03;;
15082;SDS011;7640;53.116;6.878;2022-08-19T03:57:04;21.47;;;13.63;;
15082;SDS011;7640;53.116;6.878;2022-08-19T03:59:34;20.13;;;13.60;;
15082;SDS011;7640;53.116;6.878;2022-08-19T04:02:06;17.83;;;12.07;;
15082;SDS011;7640;53.116;6.878;2022-08-19T04:04:37;14.90;;;10.33;;
15082;SDS011;7640;53.116;6.878;2022-08-19T04:07:09;15.27;;;10.67;;
15082;SDS011;7640;53.116;6.878;2022-08-19T04:09:41;12.97;;;8.57;;
15082;SDS011;7640;53.116;6.878;2022-08-19T04:12:10;10.67;;;8.27;;
15082;SDS011;7640;53.116;6.878;2022-08-19T04:14:40;10.27;;;7.43;;
15082;SDS011;7640;53.116;6.878;2022-08-19T04:17:08;9.53;;;7.03;;
15082;SDS011;7640;53.116;6.878;2022-08-19T04:19:37;11.23;;;8.10;;
15082;SDS011;7640;53.116;6.878;2022-08-19T04:22:06;10.30;;;7.73;;
15082;SDS011;7640;53.116;6.878;2022-08-19T04:24:34;11.63;;;7.50;;
15082;SDS011;7640;53.116;6.878;2022-08-19T04:27:02;11.80;;;7.90;;
15082;SDS011;7640;53.116;6.878;2022-08-19T04:29:32;10.17;;;7.43;;
15082;SDS011;7640;53.116;6.878;2022-08-19T04:32:02;12.20;;;8.13;;
15082;SDS011;7640;53.116;6.878;2022-08-19T04:34:34;13.93;;;8.97;;
15082;SDS011;7640;53.116;6.878;2022-08-19T04:37:24;15.63;;;9.27;;
15082;SDS011;7640;53.116;6.878;2022-08-19T04:40:01;15.10;;;9.60;;
15082;SDS011;7640;53.116;6.878;2022-08-19T04:42:51;14.60;;;8.67;;
15082;SDS011;7640;53.116;6.878;2022-08-19T04:45:20;13.00;;;8.13;;
15082;SDS011;7640;53.116;6.878;2022-08-19T04:47:53;13.90;;;9.00;;
15082;SDS011;7640;53.116;6.878;2022-08-19T04:50:43;15.97;;;10.00;;
15082;SDS011;7640;53.116;6.878;2022-08-19T04:53:11;16.43;;;10.27;;
15082;SDS011;7640;53.116;6.878;2022-08-19T04:55:40;16.47;;;10.40;;
15082;SDS011;7640;53.116;6.878;2022-08-19T04:58:09;13.10;;;8.87;;
15082;SDS011;7640;53.116;6.878;2022-08-19T05:00:38;12.97;;;8.43;;
15082;SDS011;7640;53.116;6.878;2022-08-19T05:03:08;15.23;;;9.63;;
15082;SDS011;7640;53.116;6.878;2022-08-19T05:05:38;13.87;;;8.97;;
15082;SDS011;7640;53.116;6.878;2022-08-19T05:08:11;14.47;;;9.80;;
15082;SDS011;7640;53.116;6.878;2022-08-19T05:10:40;14.80;;;9.67;;
15082;SDS011;7640;53.116;6.878;2022-08-19T05:13:08;13.20;;;8.97;;
15082;SDS011;7640;53.116;6.878;2022-08-19T05:15:37;15.63;;;9.53;;
15082;SDS011;7640;53.116;6.878;2022-08-19T05:18:05;13.90;;;8.83;;
15082;SDS011;7640;53.116;6.878;2022-08-19T05:20:52;15.73;;;9.53;;
15082;SDS011;7640;53.116;6.878;2022-08-19T05:23:38;18.87;;;11.43;;
15082;SDS011;7640;53.116;6.878;2022-08-19T05:26:07;28.43;;;17.53;;
15082;SDS011;7640;53.116;6.878;2022-08-19T05:28:37;15.13;;;10.63;;
15082;SDS011;7640;53.116;6.878;2022-08-19T05:31:05;17.90;;;10.77;;
15082;SDS011;7640;53.116;6.878;2022-08-19T05:33:33;16.80;;;10.90;;
15082;SDS011;7640;53.116;6.878;2022-08-19T05:36:03;15.33;;;9.97;;
15082;SDS011;7640;53.116;6.878;2022-08-19T05:38:32;15.43;;;9.93;;
15082;SDS011;7640;53.116;6.878;2022-08-19T05:41:00;17.47;;;10.33;;
15082;SDS011;7640;53.116;6.878;2022-08-19T05:43:28;17.27;;;10.60;;
15082;SDS011;7640;53.116;6.878;2022-08-19T05:45:57;17.83;;;11.60;;
15082;SDS011;7640;53.116;6.878;2022-08-19T05:48:25;17.90;;;11.70;;
15082;SDS011;7640;53.116;6.878;2022-08-19T05:50:54;16.20;;;10.77;;
15082;SDS011;7640;53.116;6.878;2022-08-19T05:53:24;19.97;;;12.17;;
15082;SDS011;7640;53.116;6.878;2022-08-19T05:55:53;16.90;;;11.13;;
15082;SDS011;7640;53.116;6.878;2022-08-19T05:58:23;17.17;;;11.70;;
15082;SDS011;7640;53.116;6.878;2022-08-19T06:00:53;18.37;;;11.40;;
15082;SDS011;7640;53.116;6.878;2022-08-19T06:03:21;18.37;;;11.57;;
15082;SDS011;7640;53.116;6.878;2022-08-19T06:05:50;18.17;;;11.87;;
15082;SDS011;7640;53.116;6.878;2022-08-19T06:08:21;18.87;;;12.07;;
15082;SDS011;7640;53.116;6.878;2022-08-19T06:11:12;18.17;;;11.80;;
15082;SDS011;7640;53.116;6.878;2022-08-19T06:13:45;18.70;;;12.20;;
15082;SDS011;7640;53.116;6.878;2022-08-19T06:16:25;17.87;;;11.27;;
15082;SDS011;7640;53.116;6.878;2022-08-19T06:18:57;20.33;;;13.03;;
15082;SDS011;7640;53.116;6.878;2022-08-19T06:21:28;21.43;;;12.07;;
15082;SDS011;7640;53.116;6.878;2022-08-19T06:23:58;19.73;;;13.37;;
15082;SDS011;7640;53.116;6.878;2022-08-19T06:26:28;22.60;;;13.57;;
15082;SDS011;7640;53.116;6.878;2022-08-19T06:28:57;20.03;;;13.73;;
15082;SDS011;7640;53.116;6.878;2022-08-19T06:31:26;18.53;;;12.93;;
15082;SDS011;7640;53.116;6.878;2022-08-19T06:33:57;18.57;;;12.57;;
15082;SDS011;7640;53.116;6.878;2022-08-19T06:36:30;23.17;;;13.50;;
15082;SDS011;7640;53.116;6.878;2022-08-19T06:39:00;15.33;;;11.90;;
15082;SDS011;7640;53.116;6.878;2022-08-19T06:41:33;19.03;;;12.40;;
15082;SDS011;7640;53.116;6.878;2022-08-19T06:44:12;18.60;;;13.07;;
15082;SDS011;7640;53.116;6.878;2022-08-19T06:46:45;15.93;;;12.27;;
15082;SDS011;7640;53.116;6.878;2022-08-19T06:49:20;15.90;;;11.60;;
15082;SDS011;7640;53.116;6.878;2022-08-19T06:51:50;16.30;;;12.30;;
15082;SDS011;7640;53.116;6.878;2022-08-19T06:54:19;16.63;;;11.73;;
15082;SDS011;7640;53.116;6.878;2022-08-19T06:56:57;16.43;;;12.00;;
15082;SDS011;7640;53.116;6.878;2022-08-19T06:59:28;15.17;;;11.60;;
15082;SDS011;7640;53.116;6.878;2022-08-19T07:02:00;18.70;;;12.77;;
15082;SDS011;7640;53.116;6.878;2022-08-19T07:04:33;14.90;;;11.63;;
15082;SDS011;7640;53.116;6.878;2022-08-19T07:07:08;14.70;;;11.90;;
15082;SDS011;7640;53.116;6.878;2022-08-19T07:09:46;14.20;;;10.90;;
15082;SDS011;7640;53.116;6.878;2022-08-19T07:12:28;19.63;;;11.97;;
15082;SDS011;7640;53.116;6.878;2022-08-19T07:15:01;15.70;;;10.80;;
15082;SDS011;7640;53.116;6.878;2022-08-19T07:17:29;17.27;;;11.77;;
15082;SDS011;7640;53.116;6.878;2022-08-19T07:20:00;15.80;;;11.37;;
15082;SDS011;7640;53.116;6.878;2022-08-19T07:22:34;16.10;;;12.70;;
15082;SDS011;7640;53.116;6.878;2022-08-19T07:25:03;13.83;;;10.97;;
15082;SDS011;7640;53.116;6.878;2022-08-19T07:27:34;14.50;;;10.63;;
15082;SDS011;7640;53.116;6.878;2022-08-19T07:30:05;13.10;;;10.60;;
15082;SDS011;7640;53.116;6.878;2022-08-19T07:32:38;15.47;;;10.30;;
15082;SDS011;7640;53.116;6.878;2022-08-19T07:35:07;11.47;;;9.70;;
15082;SDS011;7640;53.116;6.878;2022-08-19T07:37:36;12.87;;;9.80;;
15082;SDS011;7640;53.116;6.878;2022-08-19T07:40:06;10.63;;;9.33;;
15082;SDS011;7640;53.116;6.878;2022-08-19T07:42:37;11.93;;;9.87;;
15082;SDS011;7640;53.116;6.878;2022-08-19T07:45:06;11.90;;;9.43;;
15082;SDS011;7640;53.116;6.878;2022-08-19T07:47:35;10.60;;;9.40;;
15082;SDS011;7640;53.116;6.878;2022-08-19T07:50:24;11.47;;;9.57;;
15082;SDS011;7640;53.116;6.878;2022-08-19T07:52:52;11.90;;;9.53;;
15082;SDS011;7640;53.116;6.878;2022-08-19T07:55:21;12.20;;;9.77;;
15082;SDS011;7640;53.116;6.878;2022-08-19T07:58:09;11.10;;;8.93;;
15082;SDS011;7640;53.116;6.878;2022-08-19T08:00:38;11.03;;;9.30;;
15082;SDS011;7640;53.116;6.878;2022-08-19T08:03:07;12.00;;;9.40;;
15082;SDS011;7640;53.116;6.878;2022-08-19T08:05:35;13.83;;;9.60;;
15082;SDS011;7640;53.116;6.878;2022-08-19T08:08:21;13.07;;;9.80;;
15082;SDS011;7640;53.116;6.878;2022-08-19T08:11:12;12.37;;;9.60;;
15082;SDS011;7640;53.116;6.878;2022-08-19T08:13:46;9.93;;;8.93;;
15082;SDS011;7640;53.116;6.878;2022-08-19T08:16:29;9.97;;;8.93;;
15082;SDS011;7640;53.116;6.878;2022-08-19T08:19:05;10.10;;;8.67;;
15082;SDS011;7640;53.116;6.878;2022-08-19T08:21:50;11.73;;;9.07;;
15082;SDS011;7640;53.116;6.878;2022-08-19T08:24:19;10.97;;;9.40;;
15082;SDS011;7640;53.116;6.878;2022-08-19T08:26:54;12.07;;;10.77;;
15082;SDS011;7640;53.116;6.878;2022-08-19T08:29:25;10.57;;;8.80;;
15082;SDS011;7640;53.116;6.878;2022-08-19T08:32:00;11.48;;;8.73;;
15082;SDS011;7640;53.116;6.878;2022-08-19T08:34:39;12.07;;;9.10;;
15082;SDS011;7640;53.116;6.878;2022-08-19T08:37:07;9.98;;;8.98;;
15082;SDS011;7640;53.116;6.878;2022-08-19T08:39:35;11.67;;;9.90;;
15082;SDS011;7640;53.116;6.878;2022-08-19T08:42:05;11.82;;;9.65;;
15082;SDS011;7640;53.116;6.878;2022-08-19T08:44:46;11.40;;;9.68;;
15082;SDS011;7640;53.116;6.878;2022-08-19T08:47:28;14.23;;;10.20;;
15082;SDS011;7640;53.116;6.878;2022-08-19T08:50:04;12.35;;;10.02;;
15082;SDS011;7640;53.116;6.878;2022-08-19T08:52:39;13.50;;;10.25;;
15082;SDS011;7640;53.116;6.878;2022-08-19T08:55:14;10.20;;;9.07;;
15082;SDS011;7640;53.116;6.878;2022-08-19T08:57:49;11.35;;;9.93;;
15082;SDS011;7640;53.116;6.878;2022-08-19T09:00:25;13.70;;;9.68;;
15082;SDS011;7640;53.116;6.878;2022-08-19T09:02:57;13.45;;;10.38;;
15082;SDS011;7640;53.116;6.878;2022-08-19T09:05:30;10.95;;;8.80;;
15082;SDS011;7640;53.116;6.878;2022-08-19T09:08:15;11.13;;;9.27;;
15082;SDS011;7640;53.116;6.878;2022-08-19T09:10:51;9.02;;;8.13;;
15082;SDS011;7640;53.116;6.878;2022-08-19T09:13:23;9.25;;;8.25;;
15082;SDS011;7640;53.116;6.878;2022-08-19T09:16:05;8.50;;;7.25;;
15082;SDS011;7640;53.116;6.878;2022-08-19T09:18:41;6.75;;;5.97;;
15082;SDS011;7640;53.116;6.878;2022-08-19T09:21:12;6.75;;;5.40;;
15082;SDS011;7640;53.116;6.878;2022-08-19T09:23:42;6.80;;;6.10;;
15082;SDS011;7640;53.116;6.878;2022-08-19T09:26:16;7.75;;;5.13;;
15082;SDS011;7640;53.116;6.878;2022-08-19T09:28:48;6.50;;;5.80;;
15082;SDS011;7640;53.116;6.878;2022-08-19T09:31:25;7.03;;;6.28;;
15082;SDS011;7640;53.116;6.878;2022-08-19T09:33:58;6.03;;;5.43;;
15082;SDS011;7640;53.116;6.878;2022-08-19T09:36:31;5.43;;;4.93;;
15082;SDS011;7640;53.116;6.878;2022-08-19T09:39:02;6.35;;;5.75;;
15082;SDS011;7640;53.116;6.878;2022-08-19T09:41:41;5.50;;;5.00;;
15082;SDS011;7640;53.116;6.878;2022-08-19T09:44:14;5.50;;;5.00;;
15082;SDS011;7640;53.116;6.878;2022-08-19T09:46:45;4.63;;;4.22;;
15082;SDS011;7640;53.116;6.878;2022-08-19T09:49:14;4.85;;;4.22;;
15082;SDS011;7640;53.116;6.878;2022-08-19T09:51:43;6.10;;;4.65;;
15082;SDS011;7640;53.116;6.878;2022-08-19T09:54:16;4.80;;;4.30;;
15082;SDS011;7640;53.116;6.878;2022-08-19T09:56:50;5.13;;;4.60;;
15082;SDS011;7640;53.116;6.878;2022-08-19T09:59:18;4.95;;;4.32;;
15082;SDS011;7640;53.116;6.878;2022-08-19T10:01:48;4.57;;;3.70;;
15082;SDS011;7640;53.116;6.878;2022-08-19T10:04:19;4.70;;;4.22;;
15082;SDS011;7640;53.116;6.878;2022-08-19T10:06:50;3.85;;;3.55;;
15082;SDS011;7640;53.116;6.878;2022-08-19T10:09:20;5.63;;;4.63;;
15082;SDS011;7640;53.116;6.878;2022-08-19T10:12:00;4.72;;;3.88;;
15082;SDS011;7640;53.116;6.878;2022-08-19T10:14:31;4.78;;;4.22;;
15082;SDS011;7640;53.116;6.878;2022-08-19T10:17:02;6.00;;;4.13;;
15082;SDS011;7640;53.116;6.878;2022-08-19T10:19:46;4.35;;;3.95;;
15082;SDS011;7640;53.116;6.878;2022-08-19T10:22:21;4.57;;;4.18;;
15082;SDS011;7640;53.116;6.878;2022-08-19T10:24:51;5.50;;;4.28;;
15082;SDS011;7640;53.116;6.878;2022-08-19T10:27:20;5.93;;;4.80;;
15082;SDS011;7640;53.116;6.878;2022-08-19T10:29:51;4.68;;;4.28;;
15082;SDS011;7640;53.116;6.878;2022-08-19T10:32:21;6.07;;;4.07;;
15082;SDS011;7640;53.116;6.878;2022-08-19T10:34:59;5.03;;;4.53;;
15082;SDS011;7640;53.116;6.878;2022-08-19T10:37:31;6.68;;;4.82;;
15082;SDS011;7640;53.116;6.878;2022-08-19T10:40:00;6.00;;;5.40;;
15082;SDS011;7640;53.116;6.878;2022-08-19T10:42:29;5.55;;;5.05;;
15082;SDS011;7640;53.116;6.878;2022-08-19T10:44:58;9.50;;;5.60;;
15082;SDS011;7640;53.116;6.878;2022-08-19T10:47:31;5.47;;;4.97;;
15082;SDS011;7640;53.116;6.878;2022-08-19T10:50:00;5.90;;;5.28;;
15082;SDS011;7640;53.116;6.878;2022-08-19T10:52:53;5.65;;;5.13;;
15082;SDS011;7640;53.116;6.878;2022-08-19T10:55:22;5.70;;;5.20;;
15082;SDS011;7640;53.116;6.878;2022-08-19T10:58:10;6.45;;;5.45;;
15082;SDS011;7640;53.116;6.878;2022-08-19T11:00:40;5.80;;;5.30;;
15082;SDS011;7640;53.116;6.878;2022-08-19T11:03:11;7.20;;;6.55;;
15082;SDS011;7640;53.116;6.878;2022-08-19T11:05:39;6.43;;;5.82;;
15082;SDS011;7640;53.116;6.878;2022-08-19T11:08:07;6.13;;;5.38;;
15082;SDS011;7640;53.116;6.878;2022-08-19T11:10:49;6.93;;;6.03;;
15082;SDS011;7640;53.116;6.878;2022-08-19T11:13:19;6.45;;;5.85;;
15082;SDS011;7640;53.116;6.878;2022-08-19T11:15:55;8.82;;;7.95;;
15082;SDS011;7640;53.116;6.878;2022-08-19T11:18:34;7.85;;;7.07;;
15082;SDS011;7640;53.116;6.878;2022-08-19T11:21:10;6.95;;;6.25;;
15082;SDS011;7640;53.116;6.878;2022-08-19T11:23:43;7.90;;;7.10;;
15082;SDS011;7640;53.116;6.878;2022-08-19T11:26:11;10.10;;;9.07;;
15082;SDS011;7640;53.116;6.878;2022-08-19T11:28:40;8.88;;;8.07;;
15082;SDS011;7640;53.116;6.878;2022-08-19T11:31:09;8.13;;;7.43;;
15082;SDS011;7640;53.116;6.878;2022-08-19T11:33:40;7.13;;;6.25;;
15082;SDS011;7640;53.116;6.878;2022-08-19T11:36:13;8.13;;;7.40;;
15082;SDS011;7640;53.116;6.878;2022-08-19T11:38:42;8.10;;;7.32;;
15082;SDS011;7640;53.116;6.878;2022-08-19T11:41:11;8.48;;;7.68;;
15082;SDS011;7640;53.116;6.878;2022-08-19T11:43:39;9.50;;;7.95;;
15082;SDS011;7640;53.116;6.878;2022-08-19T11:46:08;7.35;;;6.25;;
15082;SDS011;7640;53.116;6.878;2022-08-19T11:48:38;6.95;;;6.25;;
15082;SDS011;7640;53.116;6.878;2022-08-19T11:51:09;6.82;;;6.22;;
15082;SDS011;7640;53.116;6.878;2022-08-19T11:53:39;6.57;;;5.97;;
15082;SDS011;7640;53.116;6.878;2022-08-19T11:56:08;6.97;;;6.38;;
15082;SDS011;7640;53.116;6.878;2022-08-19T11:58:37;7.05;;;6.50;;
15082;SDS011;7640;53.116;6.878;2022-08-19T12:01:08;6.75;;;6.18;;
15082;SDS011;7640;53.116;6.878;2022-08-19T12:03:37;7.72;;;7.03;;
15082;SDS011;7640;53.116;6.878;2022-08-19T12:06:09;7.68;;;6.97;;
15082;SDS011;7640;53.116;6.878;2022-08-19T12:08:40;7.60;;;6.90;;
15082;SDS011;7640;53.116;6.878;2022-08-19T12:11:10;6.75;;;6.10;;
15082;SDS011;7640;53.116;6.878;2022-08-19T12:13:42;7.07;;;6.47;;
15082;SDS011;7640;53.116;6.878;2022-08-19T12:16:13;7.65;;;7.00;;
15082;SDS011;7640;53.116;6.878;2022-08-19T12:18:44;7.78;;;7.03;;
15082;SDS011;7640;53.116;6.878;2022-08-19T12:21:14;7.95;;;7.13;;
15082;SDS011;7640;53.116;6.878;2022-08-19T12:23:48;7.22;;;6.57;;
15082;SDS011;7640;53.116;6.878;2022-08-19T12:26:21;7.80;;;7.13;;
15082;SDS011;7640;53.116;6.878;2022-08-19T12:28:49;7.65;;;6.90;;
15082;SDS011;7640;53.116;6.878;2022-08-19T12:31:18;8.68;;;7.88;;
15082;SDS011;7640;53.116;6.878;2022-08-19T12:33:46;7.07;;;6.45;;
15082;SDS011;7640;53.116;6.878;2022-08-19T12:36:16;5.97;;;5.47;;
15082;SDS011;7640;53.116;6.878;2022-08-19T12:38:44;8.30;;;7.47;;
15082;SDS011;7640;53.116;6.878;2022-08-19T12:41:13;8.73;;;8.02;;
15082;SDS011;7640;53.116;6.878;2022-08-19T12:43:44;9.18;;;8.27;;
15082;SDS011;7640;53.116;6.878;2022-08-19T12:46:15;9.57;;;8.68;;
15082;SDS011;7640;53.116;6.878;2022-08-19T12:48:43;10.23;;;9.32;;
15082;SDS011;7640;53.116;6.878;2022-08-19T12:51:18;9.05;;;8.15;;
15082;SDS011;7640;53.116;6.878;2022-08-19T12:53:46;10.02;;;9.02;;
15082;SDS011;7640;53.116;6.878;2022-08-19T12:56:16;9.55;;;8.75;;
15082;SDS011;7640;53.116;6.878;2022-08-19T12:58:48;10.52;;;9.52;;
15082;SDS011;7640;53.116;6.878;2022-08-19T13:01:18;10.35;;;9.48;;
15082;SDS011;7640;53.116;6.878;2022-08-19T13:03:48;9.95;;;9.10;;
15082;SDS011;7640;53.116;6.878;2022-08-19T13:06:20;11.82;;;10.43;;
15082;SDS011;7640;53.116;6.878;2022-08-19T13:08:49;9.63;;;8.75;;
15082;SDS011;7640;53.116;6.878;2022-08-19T13:11:21;10.77;;;9.77;;
15082;SDS011;7640;53.116;6.878;2022-08-19T13:13:51;11.63;;;10.55;;
15082;SDS011;7640;53.116;6.878;2022-08-19T13:16:21;11.00;;;10.00;;
15082;SDS011;7640;53.116;6.878;2022-08-19T13:18:49;10.90;;;9.88;;
15082;SDS011;7640;53.116;6.878;2022-08-19T13:21:19;11.77;;;10.68;;
15082;SDS011;7640;53.116;6.878;2022-08-19T13:23:51;10.32;;;9.38;;
15082;SDS011;7640;53.116;6.878;2022-08-19T13:26:20;11.20;;;10.15;;
15082;SDS011;7640;53.116;6.878;2022-08-19T13:28:49;11.50;;;10.50;;
15082;SDS011;7640;53.116;6.878;2022-08-19T13:31:39;11.05;;;10.15;;
15082;SDS011;7640;53.116;6.878;2022-08-19T13:34:29;11.38;;;10.30;;
15082;SDS011;7640;53.116;6.878;2022-08-19T13:37:01;11.55;;;10.57;;
15082;SDS011;7640;53.116;6.878;2022-08-19T13:39:34;10.82;;;9.82;;
15082;SDS011;7640;53.116;6.878;2022-08-19T13:42:03;10.40;;;9.50;;
15082;SDS011;7640;53.116;6.878;2022-08-19T13:44:33;8.75;;;7.95;;
15082;SDS011;7640;53.116;6.878;2022-08-19T13:47:02;9.52;;;8.55;;
15082;SDS011;7640;53.116;6.878;2022-08-19T13:49:33;9.25;;;8.35;;
15082;SDS011;7640;53.116;6.878;2022-08-19T13:52:04;8.35;;;7.57;;
15082;SDS011;7640;53.116;6.878;2022-08-19T13:54:32;9.95;;;8.95;;
15082;SDS011;7640;53.116;6.878;2022-08-19T13:57:01;7.07;;;6.38;;
15082;SDS011;7640;53.116;6.878;2022-08-19T13:59:29;6.82;;;6.32;;
15082;SDS011;7640;53.116;6.878;2022-08-19T14:01:58;7.07;;;6.38;;
15082;SDS011;7640;53.116;6.878;2022-08-19T14:04:27;7.10;;;6.55;;
15082;SDS011;7640;53.116;6.878;2022-08-19T14:06:56;7.05;;;6.35;;
15082;SDS011;7640;53.116;6.878;2022-08-19T14:09:25;6.93;;;6.20;;
15082;SDS011;7640;53.116;6.878;2022-08-19T14:11:53;6.50;;;5.90;;
15082;SDS011;7640;53.116;6.878;2022-08-19T14:14:21;7.70;;;7.00;;
15082;SDS011;7640;53.116;6.878;2022-08-19T14:16:50;8.48;;;7.68;;
15082;SDS011;7640;53.116;6.878;2022-08-19T14:19:19;11.43;;;9.68;;
15082;SDS011;7640;53.116;6.878;2022-08-19T14:21:48;11.40;;;10.32;;
15082;SDS011;7640;53.116;6.878;2022-08-19T14:24:17;12.98;;;11.68;;
15082;SDS011;7640;53.116;6.878;2022-08-19T14:26:46;12.45;;;11.00;;
15082;SDS011;7640;53.116;6.878;2022-08-19T14:29:15;15.40;;;12.48;;
15082;SDS011;7640;53.116;6.878;2022-08-19T14:31:43;14.45;;;12.60;;
15082;SDS011;7640;53.116;6.878;2022-08-19T14:34:11;15.40;;;13.75;;
15082;SDS011;7640;53.116;6.878;2022-08-19T14:36:39;15.20;;;12.35;;
15082;SDS011;7640;53.116;6.878;2022-08-19T14:39:08;13.52;;;11.45;;
15082;SDS011;7640;53.116;6.878;2022-08-19T14:41:36;14.85;;;11.77;;
15082;SDS011;7640;53.116;6.878;2022-08-19T14:44:09;16.35;;;13.00;;
15082;SDS011;7640;53.116;6.878;2022-08-19T14:46:39;14.02;;;12.60;;
15082;SDS011;7640;53.116;6.878;2022-08-19T14:49:14;14.82;;;13.07;;
15082;SDS011;7640;53.116;6.878;2022-08-19T14:51:45;15.00;;;11.77;;
15082;SDS011;7640;53.116;6.878;2022-08-19T14:54:13;13.13;;;11.48;;
15082;SDS011;7640;53.116;6.878;2022-08-19T14:56:41;12.77;;;11.00;;
15082;SDS011;7640;53.116;6.878;2022-08-19T14:59:11;12.13;;;9.95;;
15082;SDS011;7640;53.116;6.878;2022-08-19T15:01:39;11.90;;;9.00;;
15082;SDS011;7640;53.116;6.878;2022-08-19T15:04:07;10.63;;;8.18;;
15082;SDS011;7640;53.116;6.878;2022-08-19T15:06:36;9.63;;;8.23;;
15082;SDS011;7640;53.116;6.878;2022-08-19T15:09:05;11.60;;;8.63;;
15082;SDS011;7640;53.116;6.878;2022-08-19T15:11:33;11.23;;;8.40;;
15082;SDS011;7640;53.116;6.878;2022-08-19T15:14:03;9.82;;;8.27;;